Time;durP1;ratioP1;P1;durP2;ratioP2;P2;SDS_P1;SDS_P2;PMS_P1;PMS_P2;Temp;Humidity;BMP_temperature;BMP_pressure;BME280_temperature;BME280_humidity;BME280_pressure;Samples;Min_cycle;Max_cycle;Signal;HPM_P1;HPM_P2
2023/01/18 00:03:16;;;;;;;22.03;16.57;;;-3.00;99.90;;;;;;2613302;54;20146;-70
2023/01/18 00:09:03;;;;;;;30.00;18.80;;;-2.50;99.90;;;;;;2615154;39;21195;-71
2023/01/18 00:14:51;;;;;;;21.80;17.60;;;-2.50;99.90;;;;;;2613146;54;20170;-71
2023/01/18 00:17:54;;;;;;;29.83;17.40;;;-2.30;99.90;;;;;;2612527;46;20438;-71
2023/01/18 00:20:22;;;;;;;26.23;16.53;;;-2.50;99.90;;;;;;2613925;54;20197;-71
2023/01/18 00:26:12;;;;;;;21.83;15.63;;;-2.50;99.90;;;;;;2612934;54;20499;-71
2023/01/18 00:31:59;;;;;;;26.63;19.37;;;-2.60;99.90;;;;;;2616364;54;20434;-70
2023/01/18 00:37:51;;;;;;;23.20;17.80;;;-2.40;99.90;;;;;;2615515;54;20133;-71
2023/01/18 00:47:38;;;;;;;28.00;17.57;;;-3.10;99.90;;;;;;2614118;54;20403;-71
2023/01/18 00:53:27;;;;;;;29.80;18.00;;;-3.00;99.90;;;;;;2614717;54;20495;-70
2023/01/18 00:59:14;;;;;;;28.47;16.40;;;-2.80;99.90;;;;;;2613744;54;20394;-71
2023/01/18 01:11:11;;;;;;;20.33;16.20;;;-3.00;99.90;;;;;;2613694;39;20772;-72
2023/01/18 01:29:53;;;;;;;28.83;16.60;;;-3.30;99.90;;;;;;2611545;54;20391;-71
2023/01/18 01:35:40;;;;;;;23.83;17.37;;;-3.30;99.90;;;;;;2613726;54;20889;-72
2023/01/18 01:41:33;;;;;;;23.43;16.50;;;-3.50;99.90;;;;;;2612160;54;20134;-71
2023/01/18 01:50:41;;;;;;;33.40;16.87;;;-3.70;99.90;;;;;;2613071;54;20414;-71
2023/01/18 01:56:30;;;;;;;22.57;17.80;;;-3.80;99.90;;;;;;2612623;39;20583;-70
2023/01/18 02:02:18;;;;;;;22.50;15.67;;;-3.60;99.90;;;;;;2612236;54;20411;-70
2023/01/18 02:08:10;;;;;;;25.53;17.57;;;-3.70;99.90;;;;;;2615217;46;20190;-71
2023/01/18 02:14:02;;;;;;;24.43;17.47;;;-3.40;99.90;;;;;;2612850;54;20423;-70
2023/01/18 02:20:27;;;;;;;22.33;15.83;;;-3.60;99.90;;;;;;2613903;54;20378;-70
2023/01/18 02:26:21;;;;;;;23.77;15.93;;;-3.50;99.90;;;;;;2612496;54;20408;-71
2023/01/18 02:32:39;;;;;;;26.73;18.57;;;-3.50;99.90;;;;;;2615061;54;20387;-70
2023/01/18 02:51:10;;;;;;;24.03;16.53;;;-3.60;99.90;;;;;;2614510;54;20415;-71
2023/01/18 02:57:00;;;;;;;31.80;16.33;;;-3.70;99.90;;;;;;2613957;39;20952;-72
2023/01/18 03:02:50;;;;;;;24.40;16.70;;;-3.80;99.90;;;;;;2613755;54;20635;-70
2023/01/18 03:08:44;;;;;;;22.23;16.90;;;-3.90;99.90;;;;;;2615479;54;20435;-71
2023/01/18 03:21:04;;;;;;;34.70;16.43;;;-3.40;99.90;;;;;;2614529;54;20383;-71
2023/01/18 03:26:54;;;;;;;27.53;15.83;;;-3.10;99.90;;;;;;2612528;54;20393;-70
2023/01/18 03:58:35;;;;;;;25.60;17.77;;;-3.60;99.90;;;;;;2612407;39;20776;-69
2023/01/18 04:04:22;;;;;;;21.80;16.20;;;-3.50;99.90;;;;;;2611587;39;20506;-70
2023/01/18 04:10:10;;;;;;;27.93;17.37;;;-3.00;99.90;;;;;;2611997;54;20139;-69
2023/01/18 04:15:57;;;;;;;26.43;16.10;;;-3.20;99.90;;;;;;2611797;54;20487;-70
2023/01/18 04:21:44;;;;;;;25.33;16.87;;;-3.40;99.90;;;;;;2613744;54;20125;-69
2023/01/18 04:27:31;;;;;;;33.37;17.13;;;-3.40;99.90;;;;;;2611942;54;20196;-70
2023/01/18 04:33:21;;;;;;;23.77;16.37;;;-3.00;99.90;;;;;;2613018;54;20146;-70
2023/01/18 04:39:11;;;;;;;21.87;17.97;;;-3.00;99.90;;;;;;2614201;54;21005;-70
2023/01/18 04:44:59;;;;;;;21.83;17.13;;;-3.10;99.90;;;;;;2613072;54;20374;-68
2023/01/18 04:54:17;;;;;;;26.20;18.50;;;-3.70;99.90;;;;;;2614884;54;20398;-70
2023/01/18 05:00:06;;;;;;;24.47;18.07;;;-3.70;99.90;;;;;;2613015;54;20386;-71
2023/01/18 05:05:54;;;;;;;21.73;16.37;;;-3.60;99.90;;;;;;2615417;54;20379;-70
2023/01/18 05:11:42;;;;;;;31.13;19.30;;;-3.60;99.90;;;;;;2612708;54;20383;-69
2023/01/18 05:17:33;;;;;;;22.90;16.93;;;-3.40;99.90;;;;;;2612747;54;20405;-70
2023/01/18 05:23:21;;;;;;;26.70;18.20;;;-3.20;99.90;;;;;;2615300;54;20495;-70
2023/01/18 05:29:09;;;;;;;32.20;20.30;;;-3.00;99.90;;;;;;2613225;54;20435;-69
2023/01/18 05:34:56;;;;;;;24.47;15.43;;;-2.60;99.90;;;;;;2614118;39;20997;-69
2023/01/18 05:40:47;;;;;;;27.43;20.13;;;-2.60;99.90;;;;;;2611275;54;20162;-70
2023/01/18 05:46:35;;;;;;;26.37;17.43;;;-2.60;99.90;;;;;;2612487;54;21031;-69
2023/01/18 05:49:39;;;;;;;32.70;19.07;;;-2.50;99.90;;;;;;2611379;54;20411;-70
2023/01/18 05:52:07;;;;;;;26.07;17.10;;;-2.70;99.90;;;;;;2615081;54;20150;-70
2023/01/18 05:57:54;;;;;;;27.00;17.10;;;-2.50;99.90;;;;;;2615007;54;20455;-69
2023/01/18 06:03:42;;;;;;;38.10;22.10;;;-2.60;99.90;;;;;;2612461;54;20146;-70
2023/01/18 06:09:30;;;;;;;28.60;17.87;;;-2.40;99.90;;;;;;2614954;39;20551;-69
2023/01/18 06:12:33;;;;;;;35.87;21.40;;;-2.50;99.90;;;;;;2612963;54;20522;-70
2023/01/18 06:14:59;;;;;;;30.30;20.40;;;-2.40;99.90;;;;;;2612635;54;20150;-71
2023/01/18 06:20:47;;;;;;;26.07;18.80;;;-2.50;99.90;;;;;;2614540;54;20921;-70
2023/01/18 06:26:34;;;;;;;28.53;18.80;;;-2.50;99.90;;;;;;2614608;54;20238;-69
2023/01/18 06:32:22;;;;;;;33.93;20.07;;;-2.70;99.90;;;;;;2614984;46;20153;-69
2023/01/18 06:38:10;;;;;;;29.43;21.10;;;-2.50;99.90;;;;;;2614201;54;20337;-70
2023/01/18 06:43:58;;;;;;;44.13;25.97;;;-2.40;99.90;;;;;;2614933;54;20398;-70
2023/01/18 06:49:49;;;;;;;40.10;23.17;;;-2.20;99.90;;;;;;2614983;54;20126;-69
2023/01/18 06:55:58;;;;;;;27.60;21.57;;;-2.20;99.90;;;;;;2613426;54;21011;-70
2023/01/18 07:01:46;;;;;;;32.23;20.90;;;-2.40;99.90;;;;;;2614821;31;20931;-70
2023/01/18 07:07:33;;;;;;;31.60;19.97;;;-2.40;99.90;;;;;;2610551;54;20363;-70
2023/01/18 07:09:59;;;;;;;31.27;22.50;;;-2.50;99.90;;;;;;2609923;46;20407;-69
2023/01/18 07:12:27;;;;;;;35.40;21.67;;;-2.40;99.90;;;;;;2610547;54;20618;-69
2023/01/18 07:18:15;;;;;;;32.47;22.27;;;-2.30;99.90;;;;;;2612618;54;20460;-70
2023/01/18 07:24:03;;;;;;;32.03;22.30;;;-2.50;99.90;;;;;;2610302;54;21081;-68
2023/01/18 07:29:50;;;;;;;27.37;22.30;;;-2.30;99.90;;;;;;2611956;54;20130;-68
2023/01/18 07:35:38;;;;;;;35.37;22.97;;;-2.30;99.90;;;;;;2614036;54;20134;-70
2023/01/18 07:41:25;;;;;;;32.37;21.63;;;-2.30;99.90;;;;;;2612422;54;20134;-71
2023/01/18 07:47:13;;;;;;;29.63;22.70;;;-2.20;99.90;;;;;;2615213;54;20143;-69
2023/01/18 07:49:41;;;;;;;36.13;21.90;;;-2.30;99.90;;;;;;2613808;54;20414;-69
2023/01/18 07:52:06;;;;;;;37.03;23.07;;;-2.10;99.90;;;;;;2613541;54;20151;-69
2023/01/18 07:57:54;;;;;;;34.40;22.97;;;-2.10;99.90;;;;;;2615739;54;20145;-69
2023/01/18 08:03:43;;;;;;;32.47;22.97;;;-2.10;99.90;;;;;;2615472;54;20398;-69
2023/01/18 08:09:33;;;;;;;35.83;23.07;;;-2.00;99.90;;;;;;2614821;46;20847;-69
2023/01/18 08:15:21;;;;;;;29.93;23.83;;;-1.80;99.90;;;;;;2611970;39;21026;-69
2023/01/18 08:21:10;;;;;;;32.30;25.30;;;-1.60;99.90;;;;;;2614048;54;20210;-70
2023/01/18 08:26:58;;;;;;;35.13;24.30;;;-1.50;99.90;;;;;;2615156;54;20437;-68
2023/01/18 08:32:46;;;;;;;28.53;22.97;;;-1.30;99.90;;;;;;2614201;54;20275;-70
2023/01/18 08:38:33;;;;;;;39.23;26.17;;;-0.60;99.90;;;;;;2615090;54;20126;-69
2023/01/18 08:44:21;;;;;;;30.37;25.23;;;0.00;99.90;;;;;;2612051;54;20235;-69
2023/01/18 08:54:14;;;;;;;35.37;25.93;;;0.60;99.90;;;;;;2614911;54;20414;-69
2023/01/18 09:00:03;;;;;;;32.90;24.80;;;0.40;99.90;;;;;;2612372;54;20411;-71
2023/01/18 09:05:50;;;;;;;43.70;29.13;;;1.80;99.90;;;;;;2612439;39;20675;-70
2023/01/18 09:11:38;;;;;;;35.50;30.47;;;1.10;99.90;;;;;;2611827;54;20171;-71
2023/01/18 09:17:26;;;;;;;50.27;31.40;;;0.90;99.90;;;;;;2613396;39;21476;-69
2023/01/18 09:23:14;;;;;;;23.40;16.53;;;1.10;99.90;;;;;;2613174;54;20395;-70
2023/01/18 09:29:01;;;;;;;33.83;23.17;;;0.80;99.90;;;;;;2612427;54;20594;-69
2023/01/18 09:34:49;;;;;;;45.63;30.23;;;1.00;99.90;;;;;;2613256;54;20139;-70
2023/01/18 09:47:23;;;;;;;38.40;30.60;;;3.50;99.90;;;;;;2612868;39;21103;-68
2023/01/18 09:56:35;;;;;;;39.20;31.00;;;3.20;99.90;;;;;;2610328;54;20378;-70
2023/01/18 10:02:28;;;;;;;33.53;27.43;;;4.20;99.90;;;;;;2610022;54;20481;-70
2023/01/18 10:08:24;;;;;;;36.67;30.43;;;4.50;99.90;;;;;;2612385;54;20422;-70
2023/01/18 10:24:18;;;;;;;38.60;28.30;;;4.50;99.90;;;;;;2613087;54;20456;-70
2023/01/18 10:34:40;;;;;;;25.07;21.40;;;6.50;97.20;;;;;;2612677;54;20427;-70
2023/01/18 10:40:27;;;;;;;29.07;21.67;;;5.80;91.80;;;;;;2611657;54;20383;-70
2023/01/18 10:46:18;;;;;;;29.10;22.63;;;5.20;97.20;;;;;;2612052;54;20215;-69
2023/01/18 10:56:16;;;;;;;30.03;22.90;;;6.30;88.20;;;;;;2608919;54;21062;-70
2023/01/18 11:02:04;;;;;;;27.60;18.57;;;6.20;83.90;;;;;;2610180;54;20531;-73
2023/01/18 11:18:05;;;;;;;24.50;21.90;;;7.70;40.10;;;;;;2610746;54;20396;-68
2023/01/18 11:23:54;;;;;;;24.27;21.87;;;8.90;31.70;;;;;;2612879;54;20398;-70
2023/01/18 11:29:44;;;;;;;24.70;21.57;;;9.30;23.10;;;;;;2614161;54;20386;-70
2023/01/18 11:35:36;;;;;;;18.73;16.97;;;9.50;21.50;;;;;;2614191;39;20868;-70
2023/01/18 11:41:23;;;;;;;20.27;18.27;;;11.80;18.10;;;;;;2613827;54;20415;-68
2023/01/18 11:57:03;;;;;;;19.30;17.27;;;11.90;10.70;;;;;;2615914;39;20761;-70
2023/01/18 12:10:03;;;;;;;18.93;17.13;;;11.10;12.30;;;;;;2614686;39;20525;-71
2023/01/18 12:48:54;;;;;;;18.77;17.20;;;11.40;11.30;;;;;;2613792;54;20390;-71
2023/01/18 12:51:46;;;;;;;17.10;15.57;;;10.80;13.80;;;;;;2613878;46;20438;-71
2023/01/18 13:00:42;;;;;;;18.17;16.67;;;10.30;17.20;;;;;;2613834;54;20383;-74
2023/01/18 13:06:34;;;;;;;20.53;18.57;;;10.10;15.50;;;;;;2613641;54;21664;-70
2023/01/18 13:12:22;;;;;;;20.90;18.97;;;10.30;16.60;;;;;;2614671;54;20421;-71
2023/01/18 13:31:31;;;;;;;21.23;19.23;;;10.20;16.20;;;;;;2614172;54;20412;-70
2023/01/18 13:50:31;;;;;;;18.77;17.20;;;9.10;17.50;;;;;;2614131;54;20502;-71
2023/01/18 13:56:24;;;;;;;19.93;18.23;;;7.20;27.00;;;;;;2614297;54;20157;-70
2023/01/18 14:02:18;;;;;;;20.33;18.17;;;8.80;19.90;;;;;;2614317;54;20378;-69
2023/01/18 14:08:06;;;;;;;21.10;18.90;;;9.00;21.20;;;;;;2615384;39;21045;-70
2023/01/18 14:13:53;;;;;;;19.20;17.50;;;8.40;22.00;;;;;;2614079;54;20427;-70
2023/01/18 14:19:47;;;;;;;20.57;18.43;;;10.20;18.90;;;;;;2615246;39;20819;-71
2023/01/18 14:32:04;;;;;;;17.37;15.87;;;8.60;22.90;;;;;;2612715;54;20428;-69
2023/01/18 14:44:18;;;;;;;18.53;16.63;;;7.50;36.40;;;;;;2614499;54;20403;-69
2023/01/18 14:56:41;;;;;;;17.97;16.37;;;5.40;52.00;;;;;;2613696;54;20414;-70
2023/01/18 15:02:37;;;;;;;17.30;15.60;;;4.30;88.60;;;;;;2614735;54;20868;-71
2023/01/18 15:08:27;;;;;;;15.37;13.83;;;4.10;99.90;;;;;;2614383;54;20512;-70
2023/01/18 15:14:21;;;;;;;19.13;14.70;;;3.80;99.90;;;;;;2613942;54;21540;-70
2023/01/18 15:20:13;;;;;;;13.10;11.60;;;3.60;99.90;;;;;;2614354;54;20411;-69
2023/01/18 15:26:01;;;;;;;14.43;12.33;;;3.40;99.90;;;;;;2614901;54;20412;-69
2023/01/18 15:31:50;;;;;;;16.57;13.00;;;3.20;99.90;;;;;;2615002;54;20223;-69
2023/01/18 15:37:41;;;;;;;14.30;12.90;;;2.90;99.90;;;;;;2615131;54;20398;-70
2023/01/18 15:43:40;;;;;;;15.13;12.37;;;2.80;99.90;;;;;;2614020;54;20396;-70
2023/01/18 15:49:28;;;;;;;12.73;11.40;;;2.70;99.90;;;;;;2611119;54;21449;-70
2023/01/18 15:59:19;;;;;;;13.23;11.93;;;2.50;99.90;;;;;;2613684;54;20417;-71
2023/01/18 16:05:16;;;;;;;10.03;9.10;;;2.30;99.90;;;;;;2611069;54;20996;-70
2023/01/18 16:11:04;;;;;;;13.27;11.97;;;2.30;99.90;;;;;;2612600;54;20423;-70
2023/01/18 16:23:19;;;;;;;14.50;12.97;;;2.10;99.90;;;;;;2612326;54;20407;-70
2023/01/18 16:29:08;;;;;;;15.43;12.40;;;2.00;99.90;;;;;;2614393;54;20422;-70
2023/01/18 16:41:15;;;;;;;13.63;12.17;;;1.90;99.90;;;;;;2613922;54;20362;-71
2023/01/18 16:47:03;;;;;;;14.17;12.67;;;1.70;99.90;;;;;;2614611;54;20199;-70
2023/01/18 16:52:51;;;;;;;13.60;12.27;;;1.80;99.90;;;;;;2614838;54;20495;-69
2023/01/18 16:58:38;;;;;;;20.57;13.67;;;1.80;99.90;;;;;;2612975;54;20158;-69
2023/01/18 17:04:26;;;;;;;16.17;13.93;;;1.80;99.90;;;;;;2613701;54;20162;-70
2023/01/18 17:10:19;;;;;;;13.80;11.87;;;1.70;99.90;;;;;;2613639;54;20154;-68
2023/01/18 17:16:15;;;;;;;10.57;9.47;;;1.50;99.90;;;;;;2612190;54;20503;-70
2023/01/18 17:22:03;;;;;;;11.90;10.70;;;1.60;99.90;;;;;;2613596;54;20361;-70
2023/01/18 17:27:53;;;;;;;14.40;12.73;;;1.70;99.90;;;;;;2614419;54;20476;-70
2023/01/18 17:33:42;;;;;;;11.67;10.57;;;1.60;99.90;;;;;;2614440;46;21053;-69
2023/01/18 17:39:29;;;;;;;9.03;8.23;;;1.60;99.90;;;;;;2614200;54;20395;-69
2023/01/18 17:45:17;;;;;;;13.67;12.20;;;1.90;99.90;;;;;;2614404;54;20146;-69
2023/01/18 17:51:06;;;;;;;16.47;12.17;;;1.70;99.90;;;;;;2614806;54;20179;-69
2023/01/18 17:56:54;;;;;;;9.33;8.43;;;1.70;99.90;;;;;;2614169;54;20446;-71
2023/01/18 18:02:42;;;;;;;12.27;11.00;;;1.40;99.90;;;;;;2614402;54;20126;-69
2023/01/18 18:08:29;;;;;;;9.93;8.47;;;1.60;99.90;;;;;;2614810;54;20130;-70
2023/01/18 18:11:33;;;;;;;12.33;11.13;;;1.50;99.90;;;;;;2614987;54;20415;-68
2023/01/18 18:13:58;;;;;;;13.43;10.80;;;1.40;99.90;;;;;;2614744;54;20142;-70
2023/01/18 18:19:46;;;;;;;11.53;10.57;;;1.50;99.90;;;;;;2613261;54;20130;-70
2023/01/18 18:25:34;;;;;;;14.03;12.40;;;1.50;99.90;;;;;;2613400;54;20194;-70
2023/01/18 18:31:22;;;;;;;13.50;12.17;;;1.60;99.90;;;;;;2614308;54;20837;-69
2023/01/18 18:37:10;;;;;;;15.37;12.87;;;1.50;99.90;;;;;;2613733;54;20162;-69
2023/01/18 18:42:57;;;;;;;11.10;10.07;;;1.40;99.90;;;;;;2614748;47;20121;-70
2023/01/18 18:48:45;;;;;;;15.20;13.00;;;1.40;99.90;;;;;;2613645;54;20762;-70
2023/01/18 18:54:34;;;;;;;17.97;14.10;;;1.40;99.90;;;;;;2613122;54;20170;-70
2023/01/18 19:00:23;;;;;;;17.33;14.30;;;1.50;99.90;;;;;;2615198;54;20374;-69
2023/01/18 19:06:10;;;;;;;19.40;14.50;;;1.50;99.90;;;;;;2614206;54;20395;-68
2023/01/18 19:11:58;;;;;;;14.57;12.20;;;1.50;99.90;;;;;;2613833;39;20547;-69
2023/01/18 19:17:50;;;;;;;17.60;14.87;;;1.50;99.90;;;;;;2610152;54;20663;-69
2023/01/18 19:23:38;;;;;;;15.43;13.40;;;1.50;99.90;;;;;;2614547;39;21020;-71
2023/01/18 19:29:25;;;;;;;14.00;12.27;;;1.50;99.90;;;;;;2612426;39;20817;-71
2023/01/18 19:35:13;;;;;;;13.80;11.83;;;1.60;99.90;;;;;;2613557;54;20266;-69
2023/01/18 19:41:01;;;;;;;18.77;13.37;;;1.60;99.90;;;;;;2613425;54;20499;-70
2023/01/18 19:46:49;;;;;;;13.93;11.87;;;1.50;99.90;;;;;;2613081;54;20427;-69
2023/01/18 19:52:37;;;;;;;12.30;11.20;;;1.60;99.90;;;;;;2615156;54;20374;-69
2023/01/18 19:58:28;;;;;;;13.30;12.00;;;1.60;99.90;;;;;;2613936;54;20147;-69
2023/01/18 20:04:16;;;;;;;17.33;13.63;;;1.60;99.90;;;;;;2614332;39;20744;-71
2023/01/18 20:10:06;;;;;;;9.97;8.57;;;1.60;99.90;;;;;;2614527;54;20126;-70
2023/01/18 20:15:53;;;;;;;10.40;9.40;;;1.70;99.90;;;;;;2614735;54;20350;-70
2023/01/18 20:21:40;;;;;;;13.00;11.60;;;1.60;99.90;;;;;;2615156;54;20170;-71
2023/01/18 20:27:29;;;;;;;13.00;10.97;;;1.80;99.90;;;;;;2615141;54;20130;-73
2023/01/18 20:33:17;;;;;;;13.80;11.43;;;1.70;99.90;;;;;;2614750;54;20409;-68
2023/01/18 20:39:05;;;;;;;11.60;9.30;;;1.60;99.90;;;;;;2615097;54;20399;-71
2023/01/18 20:44:57;;;;;;;10.80;9.70;;;1.60;99.90;;;;;;2612459;54;20211;-72
2023/01/18 20:50:45;;;;;;;10.10;9.10;;;1.60;99.90;;;;;;2613756;54;20455;-70
2023/01/18 20:59:55;;;;;;;9.97;9.07;;;1.50;99.90;;;;;;2614029;54;20418;-70
2023/01/18 21:05:43;;;;;;;15.80;12.00;;;1.50;99.90;;;;;;2614365;46;20138;-69
2023/01/18 21:11:30;;;;;;;12.90;11.10;;;1.40;99.90;;;;;;2614664;54;20427;-71
2023/01/18 21:17:19;;;;;;;9.47;8.27;;;1.60;99.90;;;;;;2613183;54;20130;-70
2023/01/18 21:23:08;;;;;;;13.07;10.73;;;1.60;99.90;;;;;;2613999;39;20739;-68
2023/01/18 21:28:56;;;;;;;19.93;12.37;;;1.60;99.90;;;;;;2614383;54;21285;-70
2023/01/18 21:34:43;;;;;;;18.63;14.17;;;1.60;99.90;;;;;;2615288;39;20552;-70
2023/01/18 21:40:31;;;;;;;15.90;11.93;;;1.60;99.90;;;;;;2614342;46;20131;-69
2023/01/18 21:46:19;;;;;;;11.47;8.83;;;1.70;99.90;;;;;;2614463;54;20166;-71
2023/01/18 22:10:32;;;;;;;12.47;9.07;;;1.50;99.90;;;;;;2613244;54;20419;-70
2023/01/18 22:16:19;;;;;;;13.97;10.27;;;1.40;99.90;;;;;;2612239;54;20156;-70
2023/01/18 22:22:06;;;;;;;9.70;8.37;;;1.50;99.90;;;;;;2613193;54;20167;-68
2023/01/18 22:27:53;;;;;;;18.00;13.00;;;1.40;99.90;;;;;;2612575;54;20273;-69
2023/01/18 22:33:44;;;;;;;18.07;13.03;;;1.30;99.90;;;;;;2611710;54;20134;-68
2023/01/18 22:39:32;;;;;;;23.10;13.00;;;1.30;99.90;;;;;;2614319;54;20390;-69
2023/01/18 22:45:20;;;;;;;14.07;10.90;;;1.30;99.90;;;;;;2613697;54;20518;-71
2023/01/18 22:51:11;;;;;;;11.40;9.53;;;1.40;99.90;;;;;;2614084;54;20179;-68
2023/01/18 23:00:20;;;;;;;17.13;10.73;;;1.60;99.90;;;;;;2613513;54;20422;-70
2023/01/18 23:06:08;;;;;;;17.47;13.30;;;1.70;99.90;;;;;;2613770;54;20154;-69
2023/01/18 23:11:56;;;;;;;16.03;11.40;;;1.80;99.90;;;;;;2614402;54;20174;-69
2023/01/18 23:17:44;;;;;;;14.83;10.70;;;1.70;99.90;;;;;;2615029;54;20137;-68
2023/01/18 23:23:32;;;;;;;8.50;6.97;;;1.70;99.90;;;;;;2614796;54;20150;-69
2023/01/18 23:29:20;;;;;;;14.30;11.80;;;1.60;99.90;;;;;;2614423;54;20732;-69
2023/01/18 23:35:07;;;;;;;13.33;9.37;;;1.60;99.90;;;;;;2614581;54;20946;-70
2023/01/18 23:59:17;;;;;;;18.07;13.33;;;1.80;99.90;;;;;;2615253;54;20421;-69
